Huvudsida
METAR-TAF:

METAR-TAF

Flygplatser :

Cannes, Frankrike

latitud: 43-33N, longitud: 006-57E, höjd: 3 m

Aktuellt väderrapport

Denna rapport gjordes för 12 minuter sedan, klockan 11:00 UTC
Vind 8 kt från sydost, varierande mellan ost och syd
Temperatur 24°C
Fuktighet 74%
Tryck 1016 hPa
Sikt 10 km eller mer
Brutna moln på en höjd av 2600 ft

METAR: LFMD 161100Z AUTO 14008KT 090V180 9999 BKN026 24/19 Q1016 NOSIG

Tid: 13:12 (11:12 UTC)

Väderprognos

Denna rapport gjordes för 3 timmar och 12 minuter sedan, klockan 08:00 UTC
Prognos gäller från 16 kl. 09 UTC till 17 kl. 09 UTC
Vind 10 kt från ost/sydost
Sikt 10 km eller mer
Spridda moln på en höjd av 3000 ft
Blir
från 16 kl. 18 UTC till 16 kl. 20 UTC
Vind 4 kt varierande vindriktning
Brutna moln på en höjd av 1200 ft
Blir
från 17 kl. 07 UTC till 17 kl. 09 UTC
Vind 8 kt från syd

TAF: LFMD 160800Z 1609/1709 12010KT 9999 SCT030 BECMG 1618/1620 VRB04KT BKN012 BECMG 1707/1709 18008KT

Aktuella väderrapporter och prognoser från 4000 flygplatser (METAR- och TAF-rapporter).

De tillgängliga stationerna syns som gula och röda prickar på kartan.

För musen över prickarna för att se namnen på stationerna.

Klicka sedan för att få väderrapporter och prognoser.

För att ändra kartan: Klicka på de gröna knapparna med ett svart kors på för att zooma in; den gröna knappen med ett streck på för att zooma ut; eller på de gröna pilarna för angränsande kartor.


METAR-TAF: